Main page
Satellite images 15-day forecastsClimateMarine weather Cyclones Lightning AirportsFAQ Newsletter About
Weather : Europe Africa North America South America Asia Australia-Oceania Others
Languages Contact

Milan, Italy

Malpensa

latitude: 45-37N, longitude: 008-44E, elevation: 234 m


METAR: LIMC 281950Z 06011KT 9999 -RA SCT030TCU BKN070 20/17 Q1009 NOSIG
short-TAF: out of date (6229 hours)
long-TAF: LIMC 281700Z 2818/2924 15007KT 9999 RA BKN025 BKN060 TEMPO 2818/2912 2000 TSRA BKN010CB

Time: 22:27 (20:27 UTC)

Current weather observation

The report was made 37 minutes ago, at 19:50 UTC  
Wind 11 kt from the East/Northeast
Temperature 20°C
Humidity 83%
Pressure 1009 hPa
Visibility 10 km or more
Scattered clouds at a height of 3000 ft , Towering cumulus.
Broken clouds at a height of 7000 ft
light rain

Change units

Forecast

The report was made 3 hours and 6 minutes ago, at 17:21 UTC  
Forecast valid from 28 at 18 UTC to 29 at 24 UTC
Wind 07 kt from the South/Southeast
Visibility 10 km or more
Broken clouds at a height of 2500 ft
Broken clouds at a height of 6000 ft
rain
Temporary
from 28 at 18 UTC to 29 at 12 UTC
Visibility 2000 m
Broken clouds at a height of 1000 ft , Cumulonimbus.
thunderstorm rain
The information on this site is subject to a disclaimer
Weather : Europe Africa North America South America Asia Australia-Oceania Others
Satellite images 15-day forecastsClimateMarine weather Cyclones Lightning AirportsFAQ Languages Contact Newsletter About